sensor_id;sensor_type;location;lat;lon;timestamp;P1;durP1;ratioP1;P2;durP2;ratioP2
66870;SDS011;53780;44.998;9.926;2023-08-06T06:51:50;3.17;;;0.88;;
66870;SDS011;53780;44.998;9.926;2023-08-06T06:54:54;3.17;;;1.00;;
66870;SDS011;53780;44.998;9.926;2023-08-06T06:57:58;3.25;;;1.00;;
66870;SDS011;53780;44.998;9.926;2023-08-06T07:01:02;3.20;;;1.30;;
66870;SDS011;53780;44.998;9.926;2023-08-06T07:04:06;3.03;;;1.10;;
66870;SDS011;53780;44.998;9.926;2023-08-06T07:07:10;4.43;;;0.90;;
66870;SDS011;53780;44.998;9.926;2023-08-06T07:10:14;4.03;;;1.25;;
66870;SDS011;53780;44.998;9.926;2023-08-06T07:13:17;3.15;;;0.80;;
66870;SDS011;53780;44.998;9.926;2023-08-06T07:16:21;2.80;;;0.80;;
66870;SDS011;53780;44.998;9.926;2023-08-06T07:19:25;3.00;;;0.80;;
66870;SDS011;53780;44.998;9.926;2023-08-06T07:22:29;3.75;;;1.10;;
66870;SDS011;53780;44.998;9.926;2023-08-06T07:25:33;6.40;;;1.35;;
66870;SDS011;53780;44.998;9.926;2023-08-06T07:28:36;4.30;;;1.52;;
66870;SDS011;53780;44.998;9.926;2023-08-06T07:31:40;4.70;;;1.60;;
66870;SDS011;53780;44.998;9.926;2023-08-06T07:34:44;3.63;;;1.30;;
66870;SDS011;53780;44.998;9.926;2023-08-06T07:37:48;4.30;;;1.30;;
66870;SDS011;53780;44.998;9.926;2023-08-06T07:40:52;3.38;;;1.20;;
66870;SDS011;53780;44.998;9.926;2023-08-06T07:43:56;3.72;;;0.93;;
66870;SDS011;53780;44.998;9.926;2023-08-06T07:47:00;4.20;;;1.10;;
66870;SDS011;53780;44.998;9.926;2023-08-06T07:50:04;3.92;;;1.10;;
66870;SDS011;53780;44.998;9.926;2023-08-06T07:53:08;4.03;;;0.93;;
66870;SDS011;53780;44.998;9.926;2023-08-06T07:56:12;3.33;;;0.98;;
66870;SDS011;53780;44.998;9.926;2023-08-06T07:59:15;3.38;;;1.05;;
66870;SDS011;53780;44.998;9.926;2023-08-06T08:02:21;3.90;;;1.10;;
66870;SDS011;53780;44.998;9.926;2023-08-06T08:05:25;3.03;;;1.00;;
66870;SDS011;53780;44.998;9.926;2023-08-06T08:08:29;3.60;;;0.82;;
66870;SDS011;53780;44.998;9.926;2023-08-06T08:11:33;3.67;;;1.00;;
66870;SDS011;53780;44.998;9.926;2023-08-06T08:14:36;4.45;;;1.02;;
66870;SDS011;53780;44.998;9.926;2023-08-06T08:17:40;2.60;;;0.93;;
66870;SDS011;53780;44.998;9.926;2023-08-06T08:20:45;3.08;;;0.70;;
66870;SDS011;53780;44.998;9.926;2023-08-06T08:23:48;2.90;;;0.80;;
66870;SDS011;53780;44.998;9.926;2023-08-06T08:26:52;3.78;;;1.25;;
66870;SDS011;53780;44.998;9.926;2023-08-06T08:29:57;4.38;;;0.95;;
66870;SDS011;53780;44.998;9.926;2023-08-06T08:33:00;2.70;;;1.20;;
66870;SDS011;53780;44.998;9.926;2023-08-06T08:36:04;2.60;;;1.05;;
66870;SDS011;53780;44.998;9.926;2023-08-06T08:39:08;2.88;;;0.98;;
66870;SDS011;53780;44.998;9.926;2023-08-06T08:42:11;2.50;;;0.85;;
66870;SDS011;53780;44.998;9.926;2023-08-06T08:45:16;2.80;;;1.10;;
66870;SDS011;53780;44.998;9.926;2023-08-06T08:48:24;2.50;;;0.90;;
66870;SDS011;53780;44.998;9.926;2023-08-06T08:51:30;3.50;;;1.20;;
66870;SDS011;53780;44.998;9.926;2023-08-06T08:54:36;3.00;;;1.00;;
66870;SDS011;53780;44.998;9.926;2023-08-06T08:57:42;3.65;;;0.90;;
66870;SDS011;53780;44.998;9.926;2023-08-06T09:00:46;4.22;;;1.20;;
66870;SDS011;53780;44.998;9.926;2023-08-06T09:03:54;4.90;;;1.13;;
66870;SDS011;53780;44.998;9.926;2023-08-06T09:06:59;2.83;;;0.93;;
66870;SDS011;53780;44.998;9.926;2023-08-06T09:10:03;4.90;;;1.20;;
66870;SDS011;53780;44.998;9.926;2023-08-06T09:13:10;2.53;;;1.20;;
66870;SDS011;53780;44.998;9.926;2023-08-06T09:16:15;4.28;;;1.20;;
66870;SDS011;53780;44.998;9.926;2023-08-06T09:19:20;2.70;;;1.00;;
66870;SDS011;53780;44.998;9.926;2023-08-06T09:22:24;2.95;;;1.10;;
66870;SDS011;53780;44.998;9.926;2023-08-06T09:25:29;3.97;;;1.40;;
66870;SDS011;53780;44.998;9.926;2023-08-06T09:28:38;2.65;;;1.10;;
66870;SDS011;53780;44.998;9.926;2023-08-06T09:31:51;3.83;;;1.27;;
66870;SDS011;53780;44.998;9.926;2023-08-06T09:34:56;3.90;;;1.13;;
66870;SDS011;53780;44.998;9.926;2023-08-06T09:38:07;4.68;;;1.27;;
66870;SDS011;53780;44.998;9.926;2023-08-06T09:41:18;3.33;;;1.27;;
66870;SDS011;53780;44.998;9.926;2023-08-06T09:44:31;4.70;;;1.40;;
66870;SDS011;53780;44.998;9.926;2023-08-06T09:47:37;4.57;;;1.40;;
66870;SDS011;53780;44.998;9.926;2023-08-06T09:50:41;4.30;;;1.33;;
66870;SDS011;53780;44.998;9.926;2023-08-06T09:53:45;2.60;;;1.20;;
66870;SDS011;53780;44.998;9.926;2023-08-06T09:56:51;2.50;;;0.95;;
66870;SDS011;53780;44.998;9.926;2023-08-06T09:59:55;2.92;;;1.30;;
66870;SDS011;53780;44.998;9.926;2023-08-06T10:02:59;4.03;;;1.00;;
66870;SDS011;53780;44.998;9.926;2023-08-06T10:06:04;4.40;;;1.20;;
66870;SDS011;53780;44.998;9.926;2023-08-06T10:09:12;3.63;;;1.10;;
66870;SDS011;53780;44.998;9.926;2023-08-06T10:12:16;3.42;;;0.90;;
66870;SDS011;53780;44.998;9.926;2023-08-06T10:15:26;3.30;;;0.90;;
66870;SDS011;53780;44.998;9.926;2023-08-06T10:18:35;2.88;;;1.00;;
66870;SDS011;53780;44.998;9.926;2023-08-06T10:21:55;4.63;;;1.07;;
66870;SDS011;53780;44.998;9.926;2023-08-06T10:25:16;3.47;;;1.00;;
66870;SDS011;53780;44.998;9.926;2023-08-06T10:28:20;4.70;;;1.00;;
66870;SDS011;53780;44.998;9.926;2023-08-06T10:31:53;2.70;;;1.08;;
66870;SDS011;53780;44.998;9.926;2023-08-06T10:35:00;3.33;;;0.93;;
66870;SDS011;53780;44.998;9.926;2023-08-06T10:41:22;3.05;;;0.95;;
66870;SDS011;53780;44.998;9.926;2023-08-06T10:44:30;2.85;;;0.80;;
66870;SDS011;53780;44.998;9.926;2023-08-06T10:47:37;2.70;;;1.00;;
66870;SDS011;53780;44.998;9.926;2023-08-06T10:50:43;2.97;;;0.93;;
66870;SDS011;53780;44.998;9.926;2023-08-06T10:53:47;3.67;;;1.00;;
66870;SDS011;53780;44.998;9.926;2023-08-06T10:56:53;3.03;;;0.90;;
66870;SDS011;53780;44.998;9.926;2023-08-06T10:59:56;3.00;;;1.50;;
66870;SDS011;53780;44.998;9.926;2023-08-06T11:03:00;3.40;;;1.20;;
66870;SDS011;53780;44.998;9.926;2023-08-06T11:06:08;3.05;;;1.20;;
66870;SDS011;53780;44.998;9.926;2023-08-06T11:09:12;3.33;;;1.00;;
66870;SDS011;53780;44.998;9.926;2023-08-06T11:12:19;4.18;;;1.00;;
66870;SDS011;53780;44.998;9.926;2023-08-06T11:15:23;3.20;;;1.10;;
66870;SDS011;53780;44.998;9.926;2023-08-06T11:18:27;3.60;;;1.20;;
66870;SDS011;53780;44.998;9.926;2023-08-06T11:21:32;2.60;;;1.00;;
66870;SDS011;53780;44.998;9.926;2023-08-06T11:24:37;2.80;;;1.10;;
66870;SDS011;53780;44.998;9.926;2023-08-06T11:27:41;2.50;;;1.15;;
66870;SDS011;53780;44.998;9.926;2023-08-06T11:30:45;2.80;;;1.45;;
66870;SDS011;53780;44.998;9.926;2023-08-06T11:33:52;2.88;;;0.90;;
66870;SDS011;53780;44.998;9.926;2023-08-06T11:36:57;3.67;;;1.40;;
66870;SDS011;53780;44.998;9.926;2023-08-06T11:40:00;3.40;;;1.07;;
66870;SDS011;53780;44.998;9.926;2023-08-06T11:43:05;2.88;;;1.00;;
66870;SDS011;53780;44.998;9.926;2023-08-06T11:46:09;3.78;;;1.40;;
66870;SDS011;53780;44.998;9.926;2023-08-06T11:49:14;2.47;;;0.90;;
66870;SDS011;53780;44.998;9.926;2023-08-06T11:52:19;3.60;;;1.00;;
66870;SDS011;53780;44.998;9.926;2023-08-06T11:55:27;3.17;;;1.30;;
66870;SDS011;53780;44.998;9.926;2023-08-06T11:58:31;2.50;;;1.00;;
66870;SDS011;53780;44.998;9.926;2023-08-06T12:01:35;3.28;;;1.10;;
66870;SDS011;53780;44.998;9.926;2023-08-06T12:04:58;2.60;;;0.93;;
66870;SDS011;53780;44.998;9.926;2023-08-06T12:08:08;2.63;;;0.90;;
66870;SDS011;53780;44.998;9.926;2023-08-06T12:11:12;2.90;;;1.13;;
66870;SDS011;53780;44.998;9.926;2023-08-06T12:14:17;3.88;;;1.02;;
66870;SDS011;53780;44.998;9.926;2023-08-06T12:17:20;3.25;;;1.10;;
66870;SDS011;53780;44.998;9.926;2023-08-06T12:20:24;2.85;;;0.90;;
66870;SDS011;53780;44.998;9.926;2023-08-06T12:23:28;2.70;;;0.90;;
66870;SDS011;53780;44.998;9.926;2023-08-06T12:26:32;2.50;;;0.80;;
66870;SDS011;53780;44.998;9.926;2023-08-06T12:29:35;3.78;;;1.00;;
66870;SDS011;53780;44.998;9.926;2023-08-06T12:32:41;4.50;;;1.10;;
66870;SDS011;53780;44.998;9.926;2023-08-06T12:35:44;3.88;;;0.93;;
66870;SDS011;53780;44.998;9.926;2023-08-06T12:38:48;2.70;;;1.02;;
66870;SDS011;53780;44.998;9.926;2023-08-06T12:41:53;2.60;;;0.93;;
66870;SDS011;53780;44.998;9.926;2023-08-06T12:44:56;3.15;;;0.80;;
66870;SDS011;53780;44.998;9.926;2023-08-06T12:48:01;2.72;;;0.88;;
66870;SDS011;53780;44.998;9.926;2023-08-06T12:51:04;2.42;;;0.82;;
66870;SDS011;53780;44.998;9.926;2023-08-06T12:54:09;2.50;;;0.80;;
66870;SDS011;53780;44.998;9.926;2023-08-06T12:57:12;2.37;;;0.83;;
66870;SDS011;53780;44.998;9.926;2023-08-06T13:00:17;4.38;;;1.00;;
66870;SDS011;53780;44.998;9.926;2023-08-06T13:03:23;2.60;;;0.80;;
66870;SDS011;53780;44.998;9.926;2023-08-06T13:06:27;2.45;;;0.80;;
66870;SDS011;53780;44.998;9.926;2023-08-06T13:09:31;4.28;;;0.80;;
66870;SDS011;53780;44.998;9.926;2023-08-06T13:12:35;2.30;;;0.80;;
66870;SDS011;53780;44.998;9.926;2023-08-06T13:15:39;2.55;;;0.70;;
66870;SDS011;53780;44.998;9.926;2023-08-06T13:18:43;2.30;;;0.60;;
66870;SDS011;53780;44.998;9.926;2023-08-06T13:24:50;2.30;;;0.60;;
66870;SDS011;53780;44.998;9.926;2023-08-06T13:27:54;3.47;;;0.90;;
66870;SDS011;53780;44.998;9.926;2023-08-06T13:30:58;3.08;;;0.98;;
66870;SDS011;53780;44.998;9.926;2023-08-06T13:34:02;3.05;;;0.70;;
66870;SDS011;53780;44.998;9.926;2023-08-06T13:37:07;2.50;;;0.70;;
66870;SDS011;53780;44.998;9.926;2023-08-06T13:40:10;2.85;;;0.73;;
66870;SDS011;53780;44.998;9.926;2023-08-06T13:43:15;3.03;;;0.80;;
66870;SDS011;53780;44.998;9.926;2023-08-06T13:46:20;2.65;;;0.80;;
66870;SDS011;53780;44.998;9.926;2023-08-06T13:49:24;2.70;;;0.70;;
66870;SDS011;53780;44.998;9.926;2023-08-06T13:52:28;2.63;;;0.77;;
66870;SDS011;53780;44.998;9.926;2023-08-06T13:55:31;5.15;;;0.70;;
66870;SDS011;53780;44.998;9.926;2023-08-06T13:58:35;2.87;;;0.63;;
66870;SDS011;53780;44.998;9.926;2023-08-06T14:01:39;3.45;;;0.80;;
66870;SDS011;53780;44.998;9.926;2023-08-06T14:04:45;2.63;;;0.70;;
66870;SDS011;53780;44.998;9.926;2023-08-06T14:07:48;4.05;;;0.70;;
66870;SDS011;53780;44.998;9.926;2023-08-06T14:10:52;2.92;;;0.85;;
66870;SDS011;53780;44.998;9.926;2023-08-06T14:13:56;2.30;;;0.60;;
66870;SDS011;53780;44.998;9.926;2023-08-06T14:16:59;2.60;;;0.60;;
66870;SDS011;53780;44.998;9.926;2023-08-06T14:20:05;2.63;;;0.60;;
66870;SDS011;53780;44.998;9.926;2023-08-06T14:23:11;2.20;;;0.60;;
66870;SDS011;53780;44.998;9.926;2023-08-06T14:26:15;2.83;;;0.60;;
66870;SDS011;53780;44.998;9.926;2023-08-06T14:29:19;2.07;;;0.60;;
66870;SDS011;53780;44.998;9.926;2023-08-06T14:32:22;3.38;;;0.65;;
66870;SDS011;53780;44.998;9.926;2023-08-06T14:35:26;2.45;;;0.70;;
66870;SDS011;53780;44.998;9.926;2023-08-06T14:38:30;2.22;;;0.50;;
66870;SDS011;53780;44.998;9.926;2023-08-06T14:41:34;2.67;;;0.75;;
66870;SDS011;53780;44.998;9.926;2023-08-06T14:44:38;2.60;;;0.70;;
66870;SDS011;53780;44.998;9.926;2023-08-06T14:47:42;2.10;;;0.60;;
66870;SDS011;53780;44.998;9.926;2023-08-06T14:50:45;3.03;;;0.60;;
66870;SDS011;53780;44.998;9.926;2023-08-06T14:53:49;3.78;;;0.60;;
66870;SDS011;53780;44.998;9.926;2023-08-06T14:56:53;2.45;;;0.70;;
66870;SDS011;53780;44.998;9.926;2023-08-06T14:59:57;2.40;;;0.70;;
66870;SDS011;53780;44.998;9.926;2023-08-06T15:03:01;2.17;;;0.60;;
66870;SDS011;53780;44.998;9.926;2023-08-06T15:06:04;2.40;;;0.60;;
66870;SDS011;53780;44.998;9.926;2023-08-06T15:09:08;2.45;;;0.50;;
66870;SDS011;53780;44.998;9.926;2023-08-06T15:12:12;2.58;;;0.70;;
66870;SDS011;53780;44.998;9.926;2023-08-06T15:15:16;2.80;;;0.70;;
66870;SDS011;53780;44.998;9.926;2023-08-06T15:18:20;3.08;;;0.77;;
66870;SDS011;53780;44.998;9.926;2023-08-06T15:21:24;2.78;;;0.70;;
66870;SDS011;53780;44.998;9.926;2023-08-06T15:24:27;2.22;;;0.60;;
66870;SDS011;53780;44.998;9.926;2023-08-06T15:27:31;2.08;;;0.60;;
66870;SDS011;53780;44.998;9.926;2023-08-06T15:30:35;2.10;;;0.60;;
66870;SDS011;53780;44.998;9.926;2023-08-06T15:33:39;1.92;;;0.50;;
66870;SDS011;53780;44.998;9.926;2023-08-06T15:36:43;2.20;;;0.50;;
66870;SDS011;53780;44.998;9.926;2023-08-06T15:39:47;2.45;;;0.80;;
66870;SDS011;53780;44.998;9.926;2023-08-06T15:42:50;2.20;;;0.50;;
66870;SDS011;53780;44.998;9.926;2023-08-06T15:45:54;3.00;;;0.60;;
66870;SDS011;53780;44.998;9.926;2023-08-06T15:48:58;3.47;;;0.77;;
66870;SDS011;53780;44.998;9.926;2023-08-06T15:52:02;2.35;;;0.50;;
66870;SDS011;53780;44.998;9.926;2023-08-06T15:55:05;2.10;;;0.40;;
66870;SDS011;53780;44.998;9.926;2023-08-06T15:58:10;2.08;;;0.50;;
66870;SDS011;53780;44.998;9.926;2023-08-06T16:01:13;2.10;;;0.60;;
66870;SDS011;53780;44.998;9.926;2023-08-06T16:04:17;2.50;;;0.50;;
66870;SDS011;53780;44.998;9.926;2023-08-06T16:07:21;2.50;;;0.50;;
66870;SDS011;53780;44.998;9.926;2023-08-06T16:10:29;4.05;;;0.52;;
66870;SDS011;53780;44.998;9.926;2023-08-06T16:13:33;2.63;;;0.50;;
66870;SDS011;53780;44.998;9.926;2023-08-06T16:16:37;2.00;;;0.50;;
66870;SDS011;53780;44.998;9.926;2023-08-06T16:19:41;2.50;;;0.50;;
66870;SDS011;53780;44.998;9.926;2023-08-06T16:22:45;2.83;;;0.35;;
66870;SDS011;53780;44.998;9.926;2023-08-06T16:25:49;2.00;;;0.50;;
66870;SDS011;53780;44.998;9.926;2023-08-06T16:28:53;3.45;;;0.68;;
66870;SDS011;53780;44.998;9.926;2023-08-06T16:31:57;2.07;;;0.57;;
66870;SDS011;53780;44.998;9.926;2023-08-06T16:35:01;4.25;;;0.68;;
66870;SDS011;53780;44.998;9.926;2023-08-06T16:38:05;2.55;;;0.52;;
66870;SDS011;53780;44.998;9.926;2023-08-06T16:41:10;2.15;;;0.50;;
66870;SDS011;53780;44.998;9.926;2023-08-06T16:44:13;3.35;;;0.50;;
66870;SDS011;53780;44.998;9.926;2023-08-06T16:47:17;1.90;;;0.40;;
66870;SDS011;53780;44.998;9.926;2023-08-06T16:50:21;2.88;;;0.40;;
66870;SDS011;53780;44.998;9.926;2023-08-06T16:53:25;3.47;;;0.60;;
66870;SDS011;53780;44.998;9.926;2023-08-06T16:56:29;2.40;;;0.60;;
66870;SDS011;53780;44.998;9.926;2023-08-06T16:59:33;2.65;;;0.40;;
66870;SDS011;53780;44.998;9.926;2023-08-06T17:02:38;2.13;;;0.50;;
66870;SDS011;53780;44.998;9.926;2023-08-06T17:05:42;2.58;;;0.50;;
66870;SDS011;53780;44.998;9.926;2023-08-06T17:08:46;2.10;;;0.50;;
66870;SDS011;53780;44.998;9.926;2023-08-06T17:11:50;2.88;;;0.50;;
66870;SDS011;53780;44.998;9.926;2023-08-06T17:14:55;2.15;;;0.65;;
66870;SDS011;53780;44.998;9.926;2023-08-06T17:18:01;1.97;;;0.40;;
66870;SDS011;53780;44.998;9.926;2023-08-06T17:21:05;1.73;;;0.38;;
66870;SDS011;53780;44.998;9.926;2023-08-06T17:24:09;1.90;;;0.47;;
66870;SDS011;53780;44.998;9.926;2023-08-06T17:27:12;4.00;;;0.57;;
66870;SDS011;53780;44.998;9.926;2023-08-06T17:30:16;2.75;;;0.60;;
66870;SDS011;53780;44.998;9.926;2023-08-06T17:33:22;2.03;;;0.47;;
66870;SDS011;53780;44.998;9.926;2023-08-06T17:36:26;2.50;;;0.55;;
66870;SDS011;53780;44.998;9.926;2023-08-06T17:39:29;3.03;;;0.40;;
66870;SDS011;53780;44.998;9.926;2023-08-06T17:42:33;3.38;;;0.50;;
66870;SDS011;53780;44.998;9.926;2023-08-06T17:45:37;6.47;;;0.50;;
66870;SDS011;53780;44.998;9.926;2023-08-06T17:48:41;4.20;;;0.50;;
66870;SDS011;53780;44.998;9.926;2023-08-06T17:51:45;2.47;;;0.40;;
66870;SDS011;53780;44.998;9.926;2023-08-06T17:54:48;2.97;;;0.50;;
66870;SDS011;53780;44.998;9.926;2023-08-06T17:57:52;2.50;;;0.45;;
66870;SDS011;53780;44.998;9.926;2023-08-06T18:00:56;2.75;;;0.50;;
66870;SDS011;53780;44.998;9.926;2023-08-06T18:04:00;2.40;;;0.60;;
66870;SDS011;53780;44.998;9.926;2023-08-06T18:07:04;1.98;;;0.40;;
66870;SDS011;53780;44.998;9.926;2023-08-06T18:10:09;3.42;;;0.40;;
66870;SDS011;53780;44.998;9.926;2023-08-06T18:13:13;1.63;;;0.30;;
66870;SDS011;53780;44.998;9.926;2023-08-06T18:16:17;2.17;;;0.40;;
66870;SDS011;53780;44.998;9.926;2023-08-06T18:19:20;5.20;;;0.40;;
66870;SDS011;53780;44.998;9.926;2023-08-06T18:22:24;2.92;;;0.40;;
66870;SDS011;53780;44.998;9.926;2023-08-06T18:25:28;2.20;;;0.43;;
66870;SDS011;53780;44.998;9.926;2023-08-06T18:28:32;2.78;;;0.32;;
66870;SDS011;53780;44.998;9.926;2023-08-06T18:31:35;4.80;;;0.45;;
66870;SDS011;53780;44.998;9.926;2023-08-06T18:34:40;6.23;;;0.60;;
66870;SDS011;53780;44.998;9.926;2023-08-06T18:37:44;2.72;;;0.40;;
66870;SDS011;53780;44.998;9.926;2023-08-06T18:40:48;1.90;;;0.47;;
66870;SDS011;53780;44.998;9.926;2023-08-06T18:43:51;2.20;;;0.40;;
66870;SDS011;53780;44.998;9.926;2023-08-06T18:46:55;2.50;;;0.40;;
66870;SDS011;53780;44.998;9.926;2023-08-06T18:49:59;2.23;;;0.30;;
66870;SDS011;53780;44.998;9.926;2023-08-06T18:53:03;1.77;;;0.30;;
66870;SDS011;53780;44.998;9.926;2023-08-06T18:56:07;2.97;;;0.40;;
66870;SDS011;53780;44.998;9.926;2023-08-06T18:59:11;5.05;;;0.65;;
66870;SDS011;53780;44.998;9.926;2023-08-06T19:02:17;3.15;;;0.47;;
66870;SDS011;53780;44.998;9.926;2023-08-06T19:05:21;2.10;;;0.40;;
66870;SDS011;53780;44.998;9.926;2023-08-06T19:08:25;1.90;;;0.40;;
66870;SDS011;53780;44.998;9.926;2023-08-06T19:11:29;1.63;;;0.30;;
66870;SDS011;53780;44.998;9.926;2023-08-06T19:14:33;5.22;;;0.45;;
66870;SDS011;53780;44.998;9.926;2023-08-06T19:17:36;1.48;;;0.20;;
66870;SDS011;53780;44.998;9.926;2023-08-06T19:20:44;2.97;;;0.40;;
66870;SDS011;53780;44.998;9.926;2023-08-06T19:23:48;2.92;;;0.43;;
66870;SDS011;53780;44.998;9.926;2023-08-06T19:26:55;1.77;;;0.40;;
66870;SDS011;53780;44.998;9.926;2023-08-06T19:29:59;3.05;;;0.40;;
66870;SDS011;53780;44.998;9.926;2023-08-06T19:33:02;1.73;;;0.30;;
66870;SDS011;53780;44.998;9.926;2023-08-06T19:36:06;1.93;;;0.40;;
66870;SDS011;53780;44.998;9.926;2023-08-06T19:39:10;3.22;;;0.30;;
66870;SDS011;53780;44.998;9.926;2023-08-06T19:42:14;2.00;;;0.30;;
66870;SDS011;53780;44.998;9.926;2023-08-06T19:45:19;1.55;;;0.30;;
66870;SDS011;53780;44.998;9.926;2023-08-06T19:48:23;1.73;;;0.40;;
66870;SDS011;53780;44.998;9.926;2023-08-06T19:51:27;1.70;;;0.50;;
66870;SDS011;53780;44.998;9.926;2023-08-06T19:54:32;2.92;;;0.45;;
66870;SDS011;53780;44.998;9.926;2023-08-06T19:57:36;1.60;;;0.28;;
66870;SDS011;53780;44.998;9.926;2023-08-06T20:00:40;1.67;;;0.40;;
66870;SDS011;53780;44.998;9.926;2023-08-06T20:03:44;1.88;;;0.30;;
66870;SDS011;53780;44.998;9.926;2023-08-06T20:06:49;1.40;;;0.30;;
66870;SDS011;53780;44.998;9.926;2023-08-06T20:09:53;1.85;;;0.40;;
66870;SDS011;53780;44.998;9.926;2023-08-06T20:12:56;1.48;;;0.30;;
66870;SDS011;53780;44.998;9.926;2023-08-06T20:16:00;2.33;;;0.40;;
66870;SDS011;53780;44.998;9.926;2023-08-06T20:19:04;2.08;;;0.30;;
66870;SDS011;53780;44.998;9.926;2023-08-06T20:22:11;1.30;;;0.30;;
66870;SDS011;53780;44.998;9.926;2023-08-06T20:25:16;3.58;;;0.50;;
66870;SDS011;53780;44.998;9.926;2023-08-06T20:28:19;3.20;;;0.40;;
66870;SDS011;53780;44.998;9.926;2023-08-06T20:31:23;3.22;;;0.50;;
66870;SDS011;53780;44.998;9.926;2023-08-06T20:34:27;4.15;;;0.45;;
66870;SDS011;53780;44.998;9.926;2023-08-06T20:37:31;5.07;;;0.63;;
66870;SDS011;53780;44.998;9.926;2023-08-06T20:40:38;3.05;;;0.50;;
66870;SDS011;53780;44.998;9.926;2023-08-06T20:43:44;3.53;;;0.40;;
66870;SDS011;53780;44.998;9.926;2023-08-06T20:46:48;2.10;;;0.30;;
66870;SDS011;53780;44.998;9.926;2023-08-06T20:49:54;3.15;;;0.40;;
66870;SDS011;53780;44.998;9.926;2023-08-06T20:52:58;2.03;;;0.40;;
66870;SDS011;53780;44.998;9.926;2023-08-06T20:56:02;1.65;;;0.30;;
66870;SDS011;53780;44.998;9.926;2023-08-06T20:59:07;2.50;;;0.40;;
66870;SDS011;53780;44.998;9.926;2023-08-06T21:02:12;1.92;;;0.30;;
66870;SDS011;53780;44.998;9.926;2023-08-06T21:05:15;2.15;;;0.35;;
66870;SDS011;53780;44.998;9.926;2023-08-06T21:08:19;3.67;;;0.50;;
66870;SDS011;53780;44.998;9.926;2023-08-06T21:11:23;2.22;;;0.40;;
66870;SDS011;53780;44.998;9.926;2023-08-06T21:14:27;2.10;;;0.32;;
66870;SDS011;53780;44.998;9.926;2023-08-06T21:17:31;2.30;;;0.40;;
66870;SDS011;53780;44.998;9.926;2023-08-06T21:20:34;2.72;;;0.35;;
66870;SDS011;53780;44.998;9.926;2023-08-06T21:23:38;2.23;;;0.40;;
66870;SDS011;53780;44.998;9.926;2023-08-06T21:26:44;2.00;;;0.30;;
66870;SDS011;53780;44.998;9.926;2023-08-06T21:29:47;1.85;;;0.20;;
66870;SDS011;53780;44.998;9.926;2023-08-06T21:32:51;2.38;;;0.30;;
66870;SDS011;53780;44.998;9.926;2023-08-06T21:35:57;2.05;;;0.40;;
66870;SDS011;53780;44.998;9.926;2023-08-06T21:39:04;2.17;;;0.40;;
66870;SDS011;53780;44.998;9.926;2023-08-06T21:42:08;2.00;;;0.30;;
66870;SDS011;53780;44.998;9.926;2023-08-06T21:45:12;2.05;;;0.40;;
66870;SDS011;53780;44.998;9.926;2023-08-06T21:48:16;2.55;;;0.30;;
66870;SDS011;53780;44.998;9.926;2023-08-06T21:51:20;1.80;;;0.28;;
66870;SDS011;53780;44.998;9.926;2023-08-06T21:54:24;3.87;;;0.40;;
66870;SDS011;53780;44.998;9.926;2023-08-06T21:57:28;1.30;;;0.30;;
66870;SDS011;53780;44.998;9.926;2023-08-06T22:00:32;6.65;;;0.40;;
66870;SDS011;53780;44.998;9.926;2023-08-06T22:03:36;4.63;;;0.35;;
66870;SDS011;53780;44.998;9.926;2023-08-06T22:06:41;2.20;;;0.40;;
66870;SDS011;53780;44.998;9.926;2023-08-06T22:09:44;3.47;;;0.40;;
66870;SDS011;53780;44.998;9.926;2023-08-06T22:12:48;1.10;;;0.20;;
66870;SDS011;53780;44.998;9.926;2023-08-06T22:15:52;2.40;;;0.20;;
66870;SDS011;53780;44.998;9.926;2023-08-06T22:18:56;1.45;;;0.30;;
66870;SDS011;53780;44.998;9.926;2023-08-06T22:22:00;1.40;;;0.20;;
66870;SDS011;53780;44.998;9.926;2023-08-06T22:25:05;1.33;;;0.27;;
66870;SDS011;53780;44.998;9.926;2023-08-06T22:28:09;2.45;;;0.20;;
66870;SDS011;53780;44.998;9.926;2023-08-06T22:31:13;1.85;;;0.22;;
66870;SDS011;53780;44.998;9.926;2023-08-06T22:34:18;1.52;;;0.20;;
66870;SDS011;53780;44.998;9.926;2023-08-06T22:37:23;2.22;;;0.20;;
66870;SDS011;53780;44.998;9.926;2023-08-06T22:40:28;2.27;;;0.30;;
66870;SDS011;53780;44.998;9.926;2023-08-06T22:43:31;2.10;;;0.30;;
66870;SDS011;53780;44.998;9.926;2023-08-06T22:46:35;1.63;;;0.40;;
66870;SDS011;53780;44.998;9.926;2023-08-06T22:49:39;2.00;;;0.30;;
66870;SDS011;53780;44.998;9.926;2023-08-06T22:52:42;25.63;;;2.58;;
66870;SDS011;53780;44.998;9.926;2023-08-06T22:55:46;15.73;;;1.67;;
66870;SDS011;53780;44.998;9.926;2023-08-06T22:58:50;15.48;;;1.50;;
66870;SDS011;53780;44.998;9.926;2023-08-06T23:01:54;3.25;;;0.40;;
66870;SDS011;53780;44.998;9.926;2023-08-06T23:04:57;1.90;;;0.30;;
66870;SDS011;53780;44.998;9.926;2023-08-06T23:08:01;4.53;;;0.50;;
66870;SDS011;53780;44.998;9.926;2023-08-06T23:11:05;4.93;;;0.47;;
66870;SDS011;53780;44.998;9.926;2023-08-06T23:14:11;1.60;;;0.20;;
66870;SDS011;53780;44.998;9.926;2023-08-06T23:17:15;1.65;;;0.30;;
66870;SDS011;53780;44.998;9.926;2023-08-06T23:20:19;1.48;;;0.22;;
66870;SDS011;53780;44.998;9.926;2023-08-06T23:23:23;1.40;;;0.30;;
66870;SDS011;53780;44.998;9.926;2023-08-06T23:26:26;1.83;;;0.30;;
66870;SDS011;53780;44.998;9.926;2023-08-06T23:29:30;1.67;;;0.40;;
66870;SDS011;53780;44.998;9.926;2023-08-06T23:32:34;2.10;;;0.30;;
66870;SDS011;53780;44.998;9.926;2023-08-06T23:35:38;2.03;;;0.60;;
66870;SDS011;53780;44.998;9.926;2023-08-06T23:38:42;1.67;;;0.30;;
66870;SDS011;53780;44.998;9.926;2023-08-06T23:41:45;2.73;;;0.30;;
66870;SDS011;53780;44.998;9.926;2023-08-06T23:44:50;1.50;;;0.28;;
66870;SDS011;53780;44.998;9.926;2023-08-06T23:47:53;1.88;;;0.30;;
66870;SDS011;53780;44.998;9.926;2023-08-06T23:50:57;2.25;;;0.40;;
66870;SDS011;53780;44.998;9.926;2023-08-06T23:54:01;2.17;;;0.30;;
66870;SDS011;53780;44.998;9.926;2023-08-06T23:57:05;1.93;;;0.40;;
